Home > Products > Valid Products > TAF

000
FTUS42 KCHS 050528
TAFCHS
TAF
KCHS 050528Z 0506/0606 21012KT P6SM SCT070 WS015/23035KT
     FM050900 22007KT P6SM SCT007 SCT070 WS015/24040KT
     FM051500 23013G23KT P6SM SCT025 SCT070
     FM052300 35015G25KT 3SM RA SCT006 BKN015
     FM060300 36012G18KT 5SM -DZ BR OVC006=



000
FTUS42 KCHS 050528
TAFCHS
TAF
KCHS 050528Z 0506/0606 21012KT P6SM SCT070 WS015/23035KT
     FM050900 22007KT P6SM SCT007 SCT070 WS015/24040KT
     FM051500 23013G23KT P6SM SCT025 SCT070
     FM052300 35015G25KT 3SM RA SCT006 BKN015
     FM060300 36012G18KT 5SM -DZ BR OVC006=



000
FTUS42 KCHS 050528
TAFSAV
TAF
KSAV 050528Z 0506/0606 20007KT P6SM BKN070 WS015/21035KT
     FM050800 21006KT P6SM OVC012 WS015/24040KT
      TEMPO 0509/0512 OVC008
     FM051500 21013G21KT P6SM BKN050
     FM060000 34012G22KT 4SM -RA SCT006 BKN015
     FM060400 36012G18KT 5SM -DZ BR OVC006=



000
FTUS42 KCHS 050528
TAFSAV
TAF
KSAV 050528Z 0506/0606 20007KT P6SM BKN070 WS015/21035KT
     FM050800 21006KT P6SM OVC012 WS015/24040KT
      TEMPO 0509/0512 OVC008
     FM051500 21013G21KT P6SM BKN050
     FM060000 34012G22KT 4SM -RA SCT006 BKN015
     FM060400 36012G18KT 5SM -DZ BR OVC006=



000
FTUS42 KCHS 050152 AAA
TAFCHS
TAF AMD
KCHS 050152Z 0502/0524 21012G18KT P6SM SCT050 BKN250
     FM050400 21009KT P6SM FEW015 SCT050 WS015/23035KT
     FM050900 22007KT 5SM BR SCT003 OVC007 WS015/24040KT
     FM051500 23015G23KT P6SM SCT035 BKN070=



000
FTUS42 KCHS 050152 AAA
TAFCHS
TAF AMD
KCHS 050152Z 0502/0524 21012G18KT P6SM SCT050 BKN250
     FM050400 21009KT P6SM FEW015 SCT050 WS015/23035KT
     FM050900 22007KT 5SM BR SCT003 OVC007 WS015/24040KT
     FM051500 23015G23KT P6SM SCT035 BKN070=



000
FTUS42 KCHS 042329
TAFSAV
TAF
KSAV 042329Z 0500/0524 17011KT P6SM SCT050 BKN250 WS015/21030KT
     FM050300 19008KT P6SM FEW015 SCT050 WS015/23035KT
     FM050800 21006KT 5SM BR SCT003 OVC007 WS015/24040KT
     FM051500 22013G21KT P6SM SCT035 BKN060=



000
FTUS42 KCHS 042329
TAFCHS
TAF
KCHS 042329Z 0500/0524 20012KT P6SM SCT050 BKN250
     FM050300 21009KT P6SM FEW015 SCT050 WS015/23035KT
     FM050900 22007KT 5SM BR SCT003 OVC007 WS015/24040KT
     FM051500 23015G23KT P6SM SCT035 BKN070=



000
FTUS42 KCHS 042220 AAA
TAFSAV
TAF AMD
KSAV 042220Z 0422/0518 21012G20KT P6SM SCT050
     FM042300 19011KT P6SM SCT050
     FM050300 20007KT P6SM FEW020 SCT250 WS015/25035KT
     FM050800 21007KT 5SM BR SCT003 OVC010 WS015/25035KT
     FM051600 21012G20KT P6SM SCT020 BKN035=



000
FTUS42 KCHS 042214 AAA
TAFCHS
TAF AMD
KCHS 042214Z 0422/0518 20014G24KT P6SM SCT040 SCT250
     FM042330 20012KT P6SM SCT050 SCT250
     FM050300 21007KT P6SM FEW050 SCT250 WS015/25035KT
     FM050900 21007KT 5SM BR SCT003 OVC010 WS015/25035KT
     FM051600 21012G20KT P6SM SCT020 BKN035=



000
FTUS42 KCHS 041740
TAFCHS
TAF
KCHS 041740Z 0418/0518 20014G24KT P6SM FEW010 SCT040 SCT250
     FM042200 18012KT P6SM SCT050 SCT250
     FM050300 21007KT P6SM FEW050 SCT250 WS015/25035KT
     FM050900 21007KT 5SM BR SCT003 OVC010 WS015/25035KT
     FM051600 21012G20KT P6SM SCT020 BKN035=



000
FTUS42 KCHS 041740
TAFCHS
TAF
KCHS 041740Z 0418/0518 20014G24KT P6SM FEW010 SCT040 SCT250
     FM042200 18012KT P6SM SCT050 SCT250
     FM050300 21007KT P6SM FEW050 SCT250 WS015/25035KT
     FM050900 21007KT 5SM BR SCT003 OVC010 WS015/25035KT
     FM051600 21012G20KT P6SM SCT020 BKN035=



000
FTUS42 KCHS 041740
TAFSAV
TAF
KSAV 041740Z 0418/0518 21012G20KT P6SM SCT025 BKN040
     FM042200 17016KT P6SM SCT040 SCT250
     FM050100 20007KT P6SM FEW020 SCT250 WS015/25035KT
     FM050800 21007KT 5SM BR SCT003 OVC010 WS015/25035KT
     FM051600 21012G20KT P6SM SCT020 BKN035=



000
FTUS42 KCHS 041740
TAFSAV
TAF
KSAV 041740Z 0418/0518 21012G20KT P6SM SCT025 BKN040
     FM042200 17016KT P6SM SCT040 SCT250
     FM050100 20007KT P6SM FEW020 SCT250 WS015/25035KT
     FM050800 21007KT 5SM BR SCT003 OVC010 WS015/25035KT
     FM051600 21012G20KT P6SM SCT020 BKN035=



000
FTUS42 KCHS 041229 AAA
TAFCHS
TAF AMD
KCHS 041229Z 0412/0512 22012G18KT P6SM SCT040
     FM041800 18014G24KT P6SM SCT040
     FM050100 22007KT P6SM FEW020 WS015/22040KT=



000
FTUS42 KCHS 041129
TAFSAV
TAF
KSAV 041129Z 0412/0512 19010KT P6SM BKN040 WS010/22040KT
     FM041400 21012G20KT P6SM BKN040
     FM042200 15016G26KT P6SM SCT040
     FM050100 20005KT P6SM FEW020 WS015/22040KT=



000
FTUS42 KCHS 041129
TAFCHS
TAF
KCHS 041129Z 0412/0512 22010KT P6SM BKN040 WS010/22035KT
     FM041400 22012G18KT P6SM SCT040
     FM041800 18014G24KT P6SM SCT040
     FM050100 22007KT P6SM FEW020 WS015/22040KT=



000
FTUS42 KCHS 041129
TAFCHS
TAF
KCHS 041129Z 0412/0512 22010KT P6SM BKN040 WS010/22035KT
     FM041400 22012G18KT P6SM SCT040
     FM041800 18014G24KT P6SM SCT040
     FM050100 22007KT P6SM FEW020 WS015/22040KT=



000
FTUS42 KCHS 041129
TAFSAV
TAF
KSAV 041129Z 0412/0512 19010KT P6SM BKN040 WS010/22040KT
     FM041400 21012G20KT P6SM BKN040
     FM042200 15016G26KT P6SM SCT040
     FM050100 20005KT P6SM FEW020 WS015/22040KT=



000
FTUS42 KCHS 041046 AAC
TAFSAV
TAF AMD
KSAV 041046Z 0411/0506 19010KT P6SM BKN040 WS015/22040KT
     FM041300 21010G15KT P6SM BKN040
     FM041700 20016G26KT P6SM SCT015 SCT040=



000
FTUS42 KCHS 041046 AAC
TAFSAV
TAF AMD
KSAV 041046Z 0411/0506 19010KT P6SM BKN040 WS015/22040KT
     FM041300 21010G15KT P6SM BKN040
     FM041700 20016G26KT P6SM SCT015 SCT040=



000
FTUS42 KCHS 041045 AAE
TAFCHS
TAF AMD
KCHS 041045Z 0411/0506 18004KT P6SM BKN040 WS015/22035KT
     FM041300 22011G16KT P6SM SCT015 BKN030
     FM041800 21016G26KT P6SM SCT040=



000
FTUS42 KCHS 041045 AAE
TAFCHS
TAF AMD
KCHS 041045Z 0411/0506 18004KT P6SM BKN040 WS015/22035KT
     FM041300 22011G16KT P6SM SCT015 BKN030
     FM041800 21016G26KT P6SM SCT040=



000
FTUS42 KCHS 041014 AAD
TAFCHS
TAF AMD
KCHS 041014Z 0410/0506 18004KT 2SM BR OVC002 WS015/22035KT
      TEMPO 0410/0412 5SM BR SCT002 OVC008
     FM041200 20008KT 5SM BR SCT005 BKN015
     FM041300 22011G16KT P6SM SCT015 BKN030
     FM041800 21016G26KT P6SM SCT040=



000
FTUS42 KCHS 040901 AAC
TAFCHS
TAF AMD
KCHS 040901Z 0409/0506 18004KT 1/4SM FG VV002 WS015/22035KT
     FM041200 20008KT 5SM BR SCT005 BKN015
     FM041300 22011G16KT P6SM SCT015 BKN030
     FM041800 21016G26KT P6SM SCT040=



000
FTUS42 KCHS 040757 AAB
TAFSAV
TAF AMD
KSAV 040757Z 0408/0506 19010KT P6SM BKN040 WS015/22040KT
     FM041000 20010KT P6SM BKN012 WS015/22040KT
     FM041300 21010G15KT P6SM BKN010
     FM041700 20016G26KT P6SM SCT015 SCT040=



000
FTUS42 KCHS 040757 AAB
TAFSAV
TAF AMD
KSAV 040757Z 0408/0506 19010KT P6SM BKN040 WS015/22040KT
     FM041000 20010KT P6SM BKN012 WS015/22040KT
     FM041300 21010G15KT P6SM BKN010
     FM041700 20016G26KT P6SM SCT015 SCT040=



000
FTUS42 KCHS 040700 AAB
TAFCHS
TAF AMD
KCHS 040700Z 0407/0506 VRB03KT 1/2SM FG OVC002 WS015/22035KT
      TEMPO 0407/0409 1/4SM FG VV001
     FM041000 20008KT 5SM BR SCT005 BKN015
     FM041300 22011G16KT P6SM SCT015 BKN030
     FM041800 21016G26KT P6SM SCT040=



000
FTUS42 KCHS 040700 AAB
TAFCHS
TAF AMD
KCHS 040700Z 0407/0506 VRB03KT 1/2SM FG OVC002 WS015/22035KT
      TEMPO 0407/0409 1/4SM FG VV001
     FM041000 20008KT 5SM BR SCT005 BKN015
     FM041300 22011G16KT P6SM SCT015 BKN030
     FM041800 21016G26KT P6SM SCT040=



000
FTUS42 KCHS 040628 AAA
TAFSAV
TAF AMD
KSAV 040628Z 0406/0506 19010KT P6SM BKN040 WS015/22040KT
      TEMPO 0406/0409 4SM BR SCT004
     FM040900 20010KT 4SM BR SCT002 BKN012 WS015/22040KT
     FM041300 21010G15KT P6SM BKN010
     FM041700 20016G26KT P6SM SCT015 SCT040=



000
FTUS42 KCHS 040628 AAA
TAFSAV
TAF AMD
KSAV 040628Z 0406/0506 19010KT P6SM BKN040 WS015/22040KT
      TEMPO 0406/0409 4SM BR SCT004
     FM040900 20010KT 4SM BR SCT002 BKN012 WS015/22040KT
     FM041300 21010G15KT P6SM BKN010
     FM041700 20016G26KT P6SM SCT015 SCT040=



000
FTUS42 KCHS 040605 CCA
TAFCHS
TAF COR
KCHS 040605Z 0406/0506 VRB03KT 2SM BR OVC002 WS015/22035KT
      TEMPO 0406/0409 1/2SM FG VV002
     FM041000 20008KT 5SM BR SCT005 BKN015
     FM041300 22011G16KT P6SM SCT015 BKN030
     FM041800 21016G26KT P6SM SCT040=



000
FTUS42 KCHS 040527
TAFSAV
TAF
KSAV 040527Z 0406/0506 18005KT 3SM BR OVC002 WS015/22040KT
      TEMPO 0406/0408 3/4SM BR OVC001
     FM040900 20010KT 4SM BR SCT002 BKN012 WS015/22040KT
     FM041300 21010G15KT P6SM BKN010
     FM041700 20016G26KT P6SM SCT015 SCT040=



000
FTUS42 KCHS 040527
TAFCHS
TAF
KCHS 040527Z 0406/0506 VRB03KT P6SM VCFG OVC005 WS015/22035KT
     FM040800 18005KT 2SM BR BKN005 WS015/22040KT
      TEMPO 0408/0410 3/4SM BR OVC002
     FM041000 20008KT 5SM BR SCT005 BKN015
     FM041300 22011G16KT P6SM SCT015 BKN030
     FM041800 21016G26KT P6SM SCT040=



000
FTUS42 KCHS 040527
TAFSAV
TAF
KSAV 040527Z 0406/0506 18005KT 3SM BR OVC002 WS015/22040KT
      TEMPO 0406/0408 3/4SM BR OVC001
     FM040900 20010KT 4SM BR SCT002 BKN012 WS015/22040KT
     FM041300 21010G15KT P6SM BKN010
     FM041700 20016G26KT P6SM SCT015 SCT040=



000
FTUS42 KCHS 040527
TAFCHS
TAF
KCHS 040527Z 0406/0506 VRB03KT P6SM VCFG OVC005 WS015/22035KT
     FM040800 18005KT 2SM BR BKN005 WS015/22040KT
      TEMPO 0408/0410 3/4SM BR OVC002
     FM041000 20008KT 5SM BR SCT005 BKN015
     FM041300 22011G16KT P6SM SCT015 BKN030
     FM041800 21016G26KT P6SM SCT040=



000
FTUS42 KCHS 040346 AAC
TAFSAV
TAF AMD
KSAV 040346Z 0404/0424 18005KT 1SM BR OVC003
     FM040700 19005KT 1/4SM FG VV002
     FM041500 21010G15KT P6SM BKN010
     FM041700 20016G26KT P6SM SCT015 BKN035=



000
FTUS42 KCHS 040344 AAC
TAFCHS
TAF AMD
KCHS 040344Z 0404/0424 VRB03KT 5SM BR BKN008
     FM040700 18005KT 2SM BR BKN005 WS015/22035KT
     FM041000 20005KT 3/4SM BR VV003 WS015/22035KT
     FM041500 22011G16KT P6SM BKN010
     FM041800 21016G26KT P6SM SCT015 BKN035=



000
FTUS42 KCHS 040248 AAB
TAFSAV
TAF AMD
KSAV 040248Z 0403/0424 13004KT 6SM BR BKN005
     FM040500 18005KT 1SM BR OVC003
     FM040700 19005KT 1/4SM FG VV002
     FM041500 21010G15KT P6SM BKN010
     FM041700 20016G26KT P6SM SCT015 BKN035=



000
FTUS42 KCHS 040207 AAA
TAFSAV
TAF AMD
KSAV 040207Z 0402/0424 13004KT 6SM BR BKN005
     FM040600 18005KT 3SM BR BKN010
     FM040900 19005KT 3/4SM BR OVC005
     FM041500 21010G15KT P6SM BKN010
     FM041700 20016G26KT P6SM SCT015 BKN035=



000
FTUS42 KCHS 032324
TAFSAV
TAF
KSAV 032324Z 0400/0424 11006KT P6SM SCT050
     FM040300 13004KT 6SM BR BKN030
     FM040600 18005KT 3SM BR BKN010
     FM040900 19005KT 3/4SM BR OVC005
     FM041500 21010G15KT P6SM BKN010
     FM041700 20016G26KT P6SM SCT015 BKN035=



000
FTUS42 KCHS 032324
TAFCHS
TAF
KCHS 032324Z 0400/0424 07005KT P6SM FEW015 BKN040
     FM040300 VRB03KT 6SM BR BKN015
     FM040700 18005KT 2SM BR BKN008 WS015/22035KT
     FM041000 20005KT 3/4SM BR BKN005 WS015/22035KT
     FM041500 22011G16KT P6SM BKN010
     FM041800 21016G26KT P6SM SCT015 BKN035=



000
FTUS42 KCHS 032207 AAA
TAFCHS
TAF AMD
KCHS 032207Z 0322/0418 06006KT P6SM BKN015
      TEMPO 0323/0401 SCT015 OVC040
     FM040300 19006KT 3SM BR OVC005
     FM040600 20007KT 1SM BR OVC002
      TEMPO 0408/0412 1/2SM FG VV002
     FM041500 22012KT P6SM BKN010=



000
FTUS42 KCHS 032207 AAA
TAFCHS
TAF AMD
KCHS 032207Z 0322/0418 06006KT P6SM BKN015
      TEMPO 0323/0401 SCT015 OVC040
     FM040300 19006KT 3SM BR OVC005
     FM040600 20007KT 1SM BR OVC002
      TEMPO 0408/0412 1/2SM FG VV002
     FM041500 22012KT P6SM BKN010=



000
FTUS42 KCHS 031737
TAFSAV
TAF
KSAV 031737Z 0318/0418 13008KT P6SM SCT030
     FM040000 16006KT 5SM BR SCT005
     FM040300 18005KT 1SM BR OVC002
     FM040700 19006KT 1/2SM FG VV002
     FM041300 20008KT 1SM BR OVC004
     FM041500 21013KT P6SM SCT006 BKN010=



000
FTUS42 KCHS 031737
TAFCHS
TAF
KCHS 031737Z 0318/0418 06006KT P6SM SCT010 OVC020
     FM032200 13009KT P6SM SCT020 BKN040
     FM040300 19006KT 3SM BR OVC005
     FM040600 20007KT 1SM BR OVC002
      TEMPO 0408/0412 1/2SM FG VV002
     FM041500 22012KT P6SM BKN010=



000
FTUS42 KCHS 031737
TAFSAV
TAF
KSAV 031737Z 0318/0418 13008KT P6SM SCT030
     FM040000 16006KT 5SM BR SCT005
     FM040300 18005KT 1SM BR OVC002
     FM040700 19006KT 1/2SM FG VV002
     FM041300 20008KT 1SM BR OVC004
     FM041500 21013KT P6SM SCT006 BKN010=



000
FTUS42 KCHS 031737
TAFCHS
TAF
KCHS 031737Z 0318/0418 06006KT P6SM SCT010 OVC020
     FM032200 13009KT P6SM SCT020 BKN040
     FM040300 19006KT 3SM BR OVC005
     FM040600 20007KT 1SM BR OVC002
      TEMPO 0408/0412 1/2SM FG VV002
     FM041500 22012KT P6SM BKN010=



000
FTUS42 KCHS 031640 AAB
TAFSAV
TAF AMD
KSAV 031640Z 0317/0412 13008KT P6SM SCT015 BKN050
     FM040000 18006KT 5SM BR SCT005
     FM040500 18005KT 1SM BR OVC002=



000
FTUS42 KCHS 031640 AAC
TAFCHS
TAF AMD
KCHS 031640Z 0317/0412 07007KT P6SM SCT010 OVC025
     FM032200 13009KT P6SM SCT012 BKN025
     FM040100 19006KT 4SM BR OVC005
     FM040500 20007KT 1SM BR OVC002=



000
FTUS42 KCHS 031507 AAA
TAFSAV
TAF AMD
KSAV 031507Z 0315/0412 11004KT 1SM BR OVC002
     FM031600 12004KT 4SM BR BKN007
     FM031800 16009KT P6SM SCT015 BKN050
     FM040000 18006KT 5SM BR SCT005
     FM040500 18005KT 1SM BR OVC002=



000
FTUS42 KCHS 031507 AAA
TAFSAV
TAF AMD
KSAV 031507Z 0315/0412 11004KT 1SM BR OVC002
     FM031600 12004KT 4SM BR BKN007
     FM031800 16009KT P6SM SCT015 BKN050
     FM040000 18006KT 5SM BR SCT005
     FM040500 18005KT 1SM BR OVC002=



000
FTUS42 KCHS 031136
TAFCHS
TAF
KCHS 031136Z 0312/0412 07007KT P6SM VCSH SCT008 OVC015
      TEMPO 0313/0317 -RA BKN008 OVC012
     FM032200 13009KT P6SM SCT012 BKN025
     FM040100 19006KT 4SM BR OVC005
     FM040500 20007KT 1SM BR OVC002=



000
FTUS42 KCHS 031136
TAFSAV
TAF
KSAV 031136Z 0312/0412 10005KT 1/4SM FG VV002
     FM031500 13004KT 4SM BR OVC005
     FM031800 16009KT P6SM SCT015 BKN050
     FM040000 18006KT 5SM BR SCT005
     FM040500 18005KT 1SM BR OVC002=



000
FTUS42 KCHS 031136
TAFSAV
TAF
KSAV 031136Z 0312/0412 10005KT 1/4SM FG VV002
     FM031500 13004KT 4SM BR OVC005
     FM031800 16009KT P6SM SCT015 BKN050
     FM040000 18006KT 5SM BR SCT005
     FM040500 18005KT 1SM BR OVC002=



000
FTUS42 KCHS 031136
TAFCHS
TAF
KCHS 031136Z 0312/0412 07007KT P6SM VCSH SCT008 OVC015
      TEMPO 0313/0317 -RA BKN008 OVC012
     FM032200 13009KT P6SM SCT012 BKN025
     FM040100 19006KT 4SM BR OVC005
     FM040500 20007KT 1SM BR OVC002=



000
FTUS42 KCHS 031023 AAB
TAFSAV
TAF AMD
KSAV 031023Z 0310/0406 10003KT 3/4SM BR VV002
     FM031400 VRB03KT P6SM SCT006 BKN010
     FM031800 16009KT P6SM SCT025 BKN050
     FM040000 18006KT 5SM BR SCT005=



000
FTUS42 KCHS 030809 AAA
TAFSAV
TAF AMD
KSAV 030809Z 0308/0406 10004KT 3SM BR OVC003
     FM031400 VRB03KT P6SM SCT006 BKN010
     FM031800 16009KT P6SM SCT025 BKN050
     FM040000 18006KT 5SM BR SCT005=



000
FTUS42 KCHS 030558 CCA
TAFSAV
TAF COR
KSAV 030558Z 0306/0406 24004KT P6SM SCT035
     FM030900 VRB03KT P6SM SCT006 BKN010
      TEMPO 0311/0315 5SM BR BKN006
     FM031800 16009KT P6SM SCT025 BKN050
     FM040000 18006KT 5SM BR SCT005=



000
FTUS42 KCHS 030558 CCA
TAFSAV
TAF COR
KSAV 030558Z 0306/0406 24004KT P6SM SCT035
     FM030900 VRB03KT P6SM SCT006 BKN010
      TEMPO 0311/0315 5SM BR BKN006
     FM031800 16009KT P6SM SCT025 BKN050
     FM040000 18006KT 5SM BR SCT005=



000
FTUS42 KCHS 030539
TAFSAV
TAF
KSAV 030539Z 0306/0406 24004KT P6SM SCT035
     FM031000 VRB03KT P6SM SCT006 BKN012
      TEMPO 0311/0315 5SM BR BKN007
     FM031800 16009KT P6SM SCT025 BKN050
     FM040000 18006KT 5SM BR SCT005=



000
FTUS42 KCHS 030539
TAFCHS
TAF
KCHS 030539Z 0306/0406 08005KT P6SM OVC035
     FM030900 05010KT 6SM BR SCT008 OVC015
     FM031200 08008KT P6SM BKN008 OVC015
     FM031800 16009KT P6SM SCT012 BKN020
     FM040100 19006KT 3SM BR OVC005=



000
FTUS42 KCHS 030539
TAFCHS
TAF
KCHS 030539Z 0306/0406 08005KT P6SM OVC035
     FM030900 05010KT 6SM BR SCT008 OVC015
     FM031200 08008KT P6SM BKN008 OVC015
     FM031800 16009KT P6SM SCT012 BKN020
     FM040100 19006KT 3SM BR OVC005=



000
FTUS42 KCHS 030539
TAFSAV
TAF
KSAV 030539Z 0306/0406 24004KT P6SM SCT035
     FM031000 VRB03KT P6SM SCT006 BKN012
      TEMPO 0311/0315 5SM BR BKN007
     FM031800 16009KT P6SM SCT025 BKN050
     FM040000 18006KT 5SM BR SCT005=



000
FTUS42 KCHS 030322 AAB
TAFCHS
TAF AMD
KCHS 030322Z 0303/0324 07010KT P6SM OVC035
     FM030600 06010KT P6SM SCT015 OVC030
     FM030900 05010KT 6SM BR SCT008 OVC015
     FM031800 08008KT P6SM SCT008 BKN010=



000
FTUS42 KCHS 030109 AAA
TAFCHS
TAF AMD
KCHS 030109Z 0301/0324 07010G16KT P6SM SCT015 OVC030
     FM030600 05010G15KT 6SM BR SCT008 OVC015
     FM031800 08008KT P6SM SCT008 BKN010=



000
FTUS42 KCHS 030109 AAA
TAFCHS
TAF AMD
KCHS 030109Z 0301/0324 07010G16KT P6SM SCT015 OVC030
     FM030600 05010G15KT 6SM BR SCT008 OVC015
     FM031800 08008KT P6SM SCT008 BKN010=



000
FTUS42 KCHS 022335
TAFCHS
TAF
KCHS 022335Z 0300/0324 VRB04KT P6SM BKN035
     FM030400 07010KT P6SM SCT015 OVC030
     FM030800 05010G15KT 6SM BR SCT008 OVC015
     FM031800 08008KT P6SM SCT008 BKN010=



000
FTUS42 KCHS 022335
TAFSAV
TAF
KSAV 022335Z 0300/0324 24004KT P6SM SCT035
     FM030500 VRB03KT 5SM BR SCT008 BKN020
     FM030900 03006KT 5SM BR OVC008
     FM031500 08006KT P6SM OVC008=



000
FTUS42 KCHS 022136 AAA
TAFSAV
TAF AMD
KSAV 022136Z 0222/0318 23008KT P6SM SCT035
     FM030300 08007KT P6SM SCT008 BKN015
     FM030700 05006KT 5SM BR SCT003 BKN008
     FM031400 06007KT P6SM BKN008=



000
FTUS42 KCHS 022136 AAA
TAFCHS
TAF AMD
KCHS 022136Z 0222/0318 27009KT P6SM SCT035
     FM030000 07010KT P6SM SCT015 BKN030
     FM030300 06010KT 6SM BR SCT008 BKN015
     FM030800 05011KT 6SM BR BKN008
     FM031400 06010KT P6SM SCT008 BKN015=



000
FTUS42 KCHS 021740
TAFSAV
TAF
KSAV 021740Z 0218/0318 29008KT P6SM SCT035
     FM030100 05007KT P6SM SCT005 BKN012
     FM030500 05006KT 5SM BR SCT003 BKN008
     FM031400 06007KT P6SM BKN008=



000
FTUS42 KCHS 021740
TAFCHS
TAF
KCHS 021740Z 0218/0318 27009KT P6SM SCT035
     FM022300 06010KT P6SM SCT015 BKN030
     FM030300 06011KT 6SM BR SCT008 BKN015
     FM030900 05011KT 5SM BR BKN008
     FM031400 06010KT P6SM SCT008 BKN015=



000
FTUS42 KCHS 021740
TAFSAV
TAF
KSAV 021740Z 0218/0318 29008KT P6SM SCT035
     FM030100 05007KT P6SM SCT005 BKN012
     FM030500 05006KT 5SM BR SCT003 BKN008
     FM031400 06007KT P6SM BKN008=



000
FTUS42 KCHS 021740
TAFCHS
TAF
KCHS 021740Z 0218/0318 27009KT P6SM SCT035
     FM022300 06010KT P6SM SCT015 BKN030
     FM030300 06011KT 6SM BR SCT008 BKN015
     FM030900 05011KT 5SM BR BKN008
     FM031400 06010KT P6SM SCT008 BKN015=



000
FTUS42 KCHS 021405 AAA
TAFSAV
TAF AMD
KSAV 021405Z 0214/0312 28003KT 1/4SM FG VV002
     FM021500 31004KT 5SM BR SCT002 OVC008
     FM021800 32007KT P6SM SCT025 BKN050
     FM030200 05005KT P6SM SCT005 BKN025
     FM030800 06010KT 5SM BR VCSH BKN006 OVC012=



000
FTUS42 KCHS 021405 AAA
TAFCHS
TAF AMD
KCHS 021405Z 0214/0312 27005KT 1/4SM FG VV002
     FM021500 27006KT 5SM BR SCT002 OVC006
     FM021800 30008KT P6SM SCT020 BKN050
     FM030000 07008KT P6SM SCT015 BKN030
     FM030700 06010KT 5SM BR VCSH SCT005 OVC010=



000
FTUS42 KCHS 021405 AAA
TAFSAV
TAF AMD
KSAV 021405Z 0214/0312 28003KT 1/4SM FG VV002
     FM021500 31004KT 5SM BR SCT002 OVC008
     FM021800 32007KT P6SM SCT025 BKN050
     FM030200 05005KT P6SM SCT005 BKN025
     FM030800 06010KT 5SM BR VCSH BKN006 OVC012=



000
FTUS42 KCHS 021405 AAA
TAFCHS
TAF AMD
KCHS 021405Z 0214/0312 27005KT 1/4SM FG VV002
     FM021500 27006KT 5SM BR SCT002 OVC006
     FM021800 30008KT P6SM SCT020 BKN050
     FM030000 07008KT P6SM SCT015 BKN030
     FM030700 06010KT 5SM BR VCSH SCT005 OVC010=



000
FTUS42 KCHS 021132
TAFCHS
TAF
KCHS 021132Z 0212/0312 27005KT 1/2SM FG VV002
     FM021500 27006KT 5SM BR SCT002 OVC006
     FM021800 30008KT P6SM SCT020 BKN050
     FM030000 07008KT P6SM SCT015 BKN030
     FM030700 06010KT 5SM BR VCSH SCT005 OVC010=



000
FTUS42 KCHS 021132
TAFSAV
TAF
KSAV 021132Z 0212/0312 28003KT 1/2SM FG VV002
     FM021500 31004KT 5SM BR SCT002 OVC008
     FM021800 32007KT P6SM SCT025 BKN050
     FM030200 05005KT P6SM SCT005 BKN025
     FM030800 06010KT 5SM BR VCSH BKN006 OVC012=



000
FTUS42 KCHS 021132
TAFSAV
TAF
KSAV 021132Z 0212/0312 28003KT 1/2SM FG VV002
     FM021500 31004KT 5SM BR SCT002 OVC008
     FM021800 32007KT P6SM SCT025 BKN050
     FM030200 05005KT P6SM SCT005 BKN025
     FM030800 06010KT 5SM BR VCSH BKN006 OVC012=



000
FTUS42 KCHS 021132
TAFCHS
TAF
KCHS 021132Z 0212/0312 27005KT 1/2SM FG VV002
     FM021500 27006KT 5SM BR SCT002 OVC006
     FM021800 30008KT P6SM SCT020 BKN050
     FM030000 07008KT P6SM SCT015 BKN030
     FM030700 06010KT 5SM BR VCSH SCT005 OVC010=



000
FTUS42 KCHS 021044 AAC
TAFCHS
TAF AMD
KCHS 021044Z 0211/0306 VRB03KT 1SM BR OVC002
      TEMPO 0211/0213 1/2SM FG VV002
     FM021500 29006KT 5SM BR SCT002 OVC008
     FM021800 30008KT P6SM BKN025
     FM030000 07008KT P6SM SCT005 BKN015=



000
FTUS42 KCHS 020910 AAB
TAFSAV
TAF AMD
KSAV 020910Z 0209/0306 VRB03KT 1/2SM FG OVC002
     FM021500 31004KT 5SM BR SCT002 OVC008
     FM021830 32007KT P6SM SCT025 BKN050
     FM030100 VRB03KT P6SM SCT005 BKN025=



000
FTUS42 KCHS 020910 AAB
TAFSAV
TAF AMD
KSAV 020910Z 0209/0306 VRB03KT 1/2SM FG OVC002
     FM021500 31004KT 5SM BR SCT002 OVC008
     FM021830 32007KT P6SM SCT025 BKN050
     FM030100 VRB03KT P6SM SCT005 BKN025=



000
FTUS42 KCHS 020757 AAA
TAFSAV
TAF AMD
KSAV 020757Z 0208/0306 VRB03KT 1/4SM FG OVC002
     FM021500 31004KT 5SM BR SCT002 OVC008
     FM021830 32007KT P6SM SCT025 BKN050
     FM030100 VRB03KT P6SM SCT005 BKN025=



000
FTUS42 KCHS 020722 AAA
TAFCHS
TAF AMD
KCHS 020722Z 0207/0306 33004KT 1/2SM -DZ FG OVC002
     FM021500 29006KT 5SM BR SCT002 OVC008
     FM021800 30008KT P6SM BKN025
     FM030000 07008KT P6SM SCT005 BKN015=



    US Dept of Commerce
    National Oceanic and Atmospheric Administration
    National Weather Service
    1325 East West Highway
    Silver Spring, MD 20910
    Page Author: NWS Internet Services Team
Disclaimer
Information Quality
Credits
Glossary
Privacy Policy
Freedom of Information Act (FOIA)
About Us
Career Opportunities